KTOP/TOP METAR and TAF weather

Enter ICAO airport designator
Station Type Date Time Source
KTOP METAR 2020/07/11 04:53 UTC NOAA

KTOP 110453Z AUTO 08006KT 10SM CLR 25/21 A2996 RMK AO2 SLP136 T02500211


Station Type Date Time Source
KTOP Decoded METAR 2020/07/11 04:53 UTC NOAA

TOPEKA BILLARD MUNICIPAL AIRPORT, KS, United States (KTOP) 39-04N 95-38W 268M
Jul 11, 2020 - 12:53 AM EDT / 2020.07.11 0453 UTC
Wind: from the E (080 degrees) at 7 MPH (6 KT):0
Visibility: 10 mile(s):0
Sky conditions: clear
Temperature: 77.0 F (25.0 C)
Dew Point: 70.0 F (21.1 C)
Relative Humidity: 78%
Pressure (altimeter): 29.96 in. Hg (1014 hPa)
ob: KTOP 110453Z AUTO 08006KT 10SM CLR 25/21 A2996 RMK AO2 SLP136 T02500211
cycle: 5

Station Type Date Time Source
KTOP TAF 2020/07/10 18:39 UTC NOAA

TAF KTOP 101736Z 1018/1118 15007KT P6SM SCT050 SCT150
FM110900 35013G23KT 6SM TSRA BKN060CB
FM111400 16005KT P6SM BKN060

Example: see airport list